createdAt,value
2022-11-05T00:02:57.726Z,1003.13
2022-11-05T00:05:57.723Z,1003.13
2022-11-05T00:08:57.731Z,1003.16
2022-11-05T00:11:57.730Z,1003.21
2022-11-05T00:14:57.725Z,1003.23
2022-11-05T00:17:57.720Z,1003.26
2022-11-05T00:20:57.723Z,1003.28
2022-11-05T00:23:57.718Z,1003.3
2022-11-05T00:26:57.718Z,1003.32
2022-11-05T00:29:57.718Z,1003.32
2022-11-05T00:32:57.712Z,1003.37
2022-11-05T00:35:57.717Z,1003.4
2022-11-05T00:38:57.708Z,1003.41
2022-11-05T00:41:57.714Z,1003.42
2022-11-05T00:44:57.715Z,1003.44
2022-11-05T00:47:57.714Z,1003.49
2022-11-05T00:50:57.715Z,1003.5
2022-11-05T00:53:57.709Z,1003.53
2022-11-05T00:57:01.996Z,1003.58
2022-11-05T00:59:57.708Z,1003.6
2022-11-05T01:02:57.749Z,1003.61
2022-11-05T01:05:57.704Z,1003.62
2022-11-05T01:08:57.707Z,1003.7
2022-11-05T01:11:57.715Z,1003.74
2022-11-05T01:14:57.706Z,1003.72
2022-11-05T01:17:57.710Z,1003.76
2022-11-05T01:20:57.701Z,1003.76
2022-11-05T01:23:57.701Z,1003.77
2022-11-05T01:26:57.701Z,1003.83
2022-11-05T01:29:57.696Z,1003.79
2022-11-05T01:32:57.699Z,1003.82
2022-11-05T01:35:57.699Z,1003.85
2022-11-05T01:38:57.697Z,1003.84
2022-11-05T01:41:57.690Z,1003.9
2022-11-05T01:44:57.693Z,1003.91
2022-11-05T01:47:57.694Z,1003.97
2022-11-05T01:50:57.695Z,1003.96
2022-11-05T01:53:57.692Z,1003.97
2022-11-05T01:56:57.693Z,1003.98
2022-11-05T01:59:57.728Z,1004.01
2022-11-05T02:02:57.767Z,1004.07
2022-11-05T02:05:57.689Z,1004.06
2022-11-05T02:08:57.688Z,1004.14
2022-11-05T02:11:57.690Z,1004.13
2022-11-05T02:14:57.695Z,1004.11
2022-11-05T02:17:57.676Z,1004.15
2022-11-05T02:20:57.691Z,1004.14
2022-11-05T02:23:57.687Z,1004.18
2022-11-05T02:26:57.684Z,1004.17
2022-11-05T02:29:57.689Z,1004.16
2022-11-05T02:32:57.680Z,1004.15
2022-11-05T02:35:57.681Z,1004.21
2022-11-05T02:38:57.682Z,1004.18
2022-11-05T02:42:02.001Z,1004.17
2022-11-05T02:44:57.692Z,1004.22
2022-11-05T02:47:57.679Z,1004.21
2022-11-05T02:50:57.673Z,1004.33
2022-11-05T02:53:57.676Z,1004.36
2022-11-05T02:56:57.672Z,1004.43
2022-11-05T02:59:57.667Z,1004.43
2022-11-05T03:02:57.720Z,1004.46
2022-11-05T03:05:57.664Z,1004.47
2022-11-05T03:08:57.670Z,1004.51
2022-11-05T03:11:57.660Z,1004.53
2022-11-05T03:14:57.661Z,1004.51
2022-11-05T03:17:57.662Z,1004.58
2022-11-05T03:20:57.658Z,1004.58
2022-11-05T03:23:57.657Z,1004.61
2022-11-05T03:26:57.661Z,1004.65
2022-11-05T03:29:57.657Z,1004.64
2022-11-05T03:32:57.652Z,1004.66
2022-11-05T03:35:57.643Z,1004.67
2022-11-05T03:38:57.648Z,1004.74
2022-11-05T03:41:57.648Z,1004.74
2022-11-05T03:44:57.659Z,1004.77
2022-11-05T03:47:57.644Z,1004.83
2022-11-05T03:50:57.641Z,1004.9
2022-11-05T03:53:57.647Z,1004.93
2022-11-05T03:56:57.642Z,1004.95
2022-11-05T03:59:57.644Z,1004.95
2022-11-05T04:02:57.708Z,1005.02
2022-11-05T04:05:57.645Z,1005
2022-11-05T04:08:57.640Z,1005
2022-11-05T04:11:57.637Z,1005.03
2022-11-05T04:14:57.641Z,1005.08
2022-11-05T04:17:57.637Z,1005.07
2022-11-05T04:20:57.630Z,1005.11
2022-11-05T04:23:57.798Z,1005.14
2022-11-05T04:26:57.698Z,1005.16
2022-11-05T04:29:57.619Z,1005.14
2022-11-05T04:32:57.637Z,1005.15
2022-11-05T04:35:57.646Z,1005.22
2022-11-05T04:38:57.636Z,1005.24
2022-11-05T04:41:57.634Z,1005.27
2022-11-05T04:44:57.629Z,1005.35
2022-11-05T04:47:57.638Z,1005.38
2022-11-05T04:50:57.628Z,1005.38
2022-11-05T04:53:57.634Z,1005.39
2022-11-05T04:56:57.624Z,1005.38
2022-11-05T04:59:57.626Z,1005.4
2022-11-05T05:02:57.627Z,1005.44
2022-11-05T05:06:02.484Z,1005.46
2022-11-05T05:08:57.622Z,1005.49
2022-11-05T05:11:57.625Z,1005.56
2022-11-05T05:14:57.622Z,1005.58
2022-11-05T05:17:57.619Z,1005.57
2022-11-05T05:20:58.156Z,1005.56
2022-11-05T05:23:57.931Z,1005.55
2022-11-05T05:26:57.929Z,1005.54
2022-11-05T05:29:57.933Z,1005.61
2022-11-05T05:32:57.925Z,1005.63
2022-11-05T05:35:57.920Z,1005.62
2022-11-05T05:38:57.925Z,1005.65
2022-11-05T05:41:57.927Z,1005.69
2022-11-05T05:44:57.919Z,1005.73
2022-11-05T05:47:57.925Z,1005.82
2022-11-05T05:50:57.928Z,1005.91
2022-11-05T05:53:57.925Z,1005.97
2022-11-05T05:56:57.921Z,1006.01
2022-11-05T05:59:57.922Z,1005.99
2022-11-05T06:02:57.997Z,1006.01
2022-11-05T06:05:57.917Z,1006.02
2022-11-05T06:08:57.934Z,1006.07
2022-11-05T06:11:57.929Z,1006.11
2022-11-05T06:14:57.920Z,1006.17
2022-11-05T06:17:57.921Z,1006.18
2022-11-05T06:20:57.928Z,1006.23
2022-11-05T06:23:57.915Z,1006.27
2022-11-05T06:26:57.913Z,1006.32
2022-11-05T06:29:57.912Z,1006.37
2022-11-05T06:32:57.914Z,1006.42
2022-11-05T06:35:57.914Z,1006.46
2022-11-05T06:38:57.911Z,1006.47
2022-11-05T06:42:17.020Z,1006.49
2022-11-05T06:44:57.911Z,1006.51
2022-11-05T06:47:57.901Z,1006.58
2022-11-05T06:50:58.020Z,1006.58
2022-11-05T06:53:57.905Z,1006.64
2022-11-05T06:56:57.898Z,1006.7
2022-11-05T07:00:01.448Z,1006.79
2022-11-05T07:02:57.944Z,1006.81
2022-11-05T07:05:58.059Z,1006.89
2022-11-05T07:08:57.904Z,1006.93
2022-11-05T07:11:57.900Z,1006.99
2022-11-05T07:14:57.898Z,1007
2022-11-05T07:17:57.891Z,1007.02
2022-11-05T07:20:57.900Z,1007.07
2022-11-05T07:23:57.897Z,1007.08
2022-11-05T07:26:57.896Z,1007.19
2022-11-05T07:29:57.931Z,1007.22
2022-11-05T07:32:57.890Z,1007.22
2022-11-05T07:35:57.892Z,1007.3
2022-11-05T07:39:00.422Z,1007.34
2022-11-05T07:41:57.885Z,1007.44
2022-11-05T07:44:57.887Z,1007.47
2022-11-05T07:47:57.885Z,1007.52
2022-11-05T07:50:57.878Z,1007.54
2022-11-05T07:53:57.880Z,1007.56
2022-11-05T07:56:57.883Z,1007.56
2022-11-05T07:59:57.884Z,1007.63
2022-11-05T08:03:02.274Z,1007.7
2022-11-05T08:05:57.878Z,1007.67
2022-11-05T08:08:57.875Z,1007.71
2022-11-05T08:12:02.797Z,1007.77
2022-11-05T08:14:58.506Z,1007.78
2022-11-05T08:17:58.509Z,1007.84
2022-11-05T08:20:58.497Z,1007.82
2022-11-05T08:23:58.503Z,1007.87
2022-11-05T08:26:58.499Z,1007.84
2022-11-05T08:29:58.504Z,1007.86
2022-11-05T08:32:58.492Z,1007.89
2022-11-05T08:35:58.582Z,1007.92
2022-11-05T08:38:58.499Z,1007.94
2022-11-05T08:41:58.497Z,1008.02
2022-11-05T08:44:58.499Z,1008.02
2022-11-05T08:47:58.496Z,1008.08
2022-11-05T08:50:58.605Z,1008.16
2022-11-05T08:53:58.491Z,1008.15
2022-11-05T08:56:58.492Z,1008.14
2022-11-05T08:59:58.487Z,1008.16
2022-11-05T09:02:58.493Z,1008.17
2022-11-05T09:05:58.580Z,1008.17
2022-11-05T09:08:58.483Z,1008.15
2022-11-05T09:12:11.537Z,1008.15
2022-11-05T09:14:58.485Z,1008.15
2022-11-05T09:17:58.481Z,1008.16
2022-11-05T09:20:58.479Z,1008.14
2022-11-05T09:23:58.469Z,1008.15
2022-11-05T09:26:58.474Z,1008.2
2022-11-05T09:29:58.464Z,1008.28
2022-11-05T09:32:58.467Z,1008.26
2022-11-05T09:35:58.478Z,1008.25
2022-11-05T09:38:58.471Z,1008.26
2022-11-05T09:41:58.464Z,1008.35
2022-11-05T09:44:58.471Z,1008.37
2022-11-05T09:47:58.465Z,1008.42
2022-11-05T09:50:58.457Z,1008.47
2022-11-05T09:53:58.469Z,1008.51
2022-11-05T09:56:58.459Z,1008.55
2022-11-05T09:59:58.458Z,1008.58
2022-11-05T10:02:58.463Z,1008.61
2022-11-05T10:05:58.514Z,1008.62
2022-11-05T10:08:58.444Z,1008.66
2022-11-05T10:11:58.457Z,1008.67
2022-11-05T10:14:58.458Z,1008.66
2022-11-05T10:17:58.456Z,1008.68
2022-11-05T10:20:58.460Z,1008.69
2022-11-05T10:23:58.460Z,1008.69
2022-11-05T10:26:58.458Z,1008.69
2022-11-05T10:29:58.456Z,1008.7
2022-11-05T10:32:58.459Z,1008.67
2022-11-05T10:35:58.454Z,1008.71
2022-11-05T10:38:58.451Z,1008.7
2022-11-05T10:41:58.450Z,1008.69
2022-11-05T10:44:58.451Z,1008.71
2022-11-05T10:47:58.447Z,1008.76
2022-11-05T10:50:58.444Z,1008.76
2022-11-05T10:54:01.812Z,1008.78
2022-11-05T10:56:58.444Z,1008.8
2022-11-05T10:59:58.442Z,1008.83
2022-11-05T11:02:58.450Z,1008.81
2022-11-05T11:05:58.453Z,1008.83
2022-11-05T11:08:58.444Z,1008.81
2022-11-05T11:11:59.043Z,1008.8
2022-11-05T11:14:58.990Z,1008.76
2022-11-05T11:17:58.996Z,1008.77
2022-11-05T11:20:58.980Z,1008.72
2022-11-05T11:23:58.981Z,1008.74
2022-11-05T11:26:58.987Z,1008.78
2022-11-05T11:29:58.979Z,1008.76
2022-11-05T11:32:58.988Z,1008.7
2022-11-05T11:35:58.985Z,1008.72
2022-11-05T11:38:58.985Z,1008.72
2022-11-05T11:41:58.986Z,1008.67
2022-11-05T11:44:58.976Z,1008.7
2022-11-05T11:47:58.980Z,1008.7
2022-11-05T11:50:58.989Z,1008.67
2022-11-05T11:53:58.970Z,1008.72
2022-11-05T11:56:58.976Z,1008.63
2022-11-05T12:00:08.640Z,1008.69
2022-11-05T12:03:01.768Z,1008.67
2022-11-05T12:05:58.975Z,1008.65
2022-11-05T12:09:05.302Z,1008.61
2022-11-05T12:11:58.969Z,1008.64
2022-11-05T12:14:58.977Z,1008.57
2022-11-05T12:17:58.966Z,1008.51
2022-11-05T12:20:58.969Z,1008.53
2022-11-05T12:23:58.969Z,1008.53
2022-11-05T12:26:58.962Z,1008.54
2022-11-05T12:29:58.969Z,1008.46
2022-11-05T12:32:59.025Z,1008.45
2022-11-05T12:35:58.961Z,1008.39
2022-11-05T12:38:58.958Z,1008.41
2022-11-05T12:41:58.960Z,1008.44
2022-11-05T12:44:58.959Z,1008.41
2022-11-05T12:47:58.951Z,1008.43
2022-11-05T12:50:58.957Z,1008.42
2022-11-05T12:53:58.954Z,1008.45
2022-11-05T12:56:58.952Z,1008.5
2022-11-05T12:59:58.942Z,1008.49
2022-11-05T13:02:58.947Z,1008.57
2022-11-05T13:06:04.629Z,1008.58
2022-11-05T13:08:59.411Z,1008.56
2022-11-05T13:11:59.394Z,1008.59
2022-11-05T13:14:59.395Z,1008.61
2022-11-05T13:17:59.395Z,1008.63
2022-11-05T13:20:59.383Z,1008.66
2022-11-05T13:23:59.388Z,1008.62
2022-11-05T13:26:59.389Z,1008.58
2022-11-05T13:29:59.380Z,1008.55
2022-11-05T13:32:59.388Z,1008.65
2022-11-05T13:35:59.388Z,1008.7
2022-11-05T13:38:59.395Z,1008.65
2022-11-05T13:41:59.385Z,1008.63
2022-11-05T13:44:59.385Z,1008.64
2022-11-05T13:47:59.381Z,1008.63
2022-11-05T13:50:59.383Z,1008.69
2022-11-05T13:53:59.380Z,1008.67
2022-11-05T13:56:59.380Z,1008.66
2022-11-05T13:59:59.373Z,1008.65
2022-11-05T14:02:59.386Z,1008.62
2022-11-05T14:05:59.376Z,1008.63
2022-11-05T14:08:59.370Z,1008.68
2022-11-05T14:11:59.372Z,1008.67
2022-11-05T14:14:59.409Z,1008.68
2022-11-05T14:17:59.378Z,1008.6
2022-11-05T14:20:59.373Z,1008.61
2022-11-05T14:23:59.372Z,1008.62
2022-11-05T14:26:59.368Z,1008.6
2022-11-05T14:29:59.382Z,1008.67
2022-11-05T14:32:59.368Z,1008.68
2022-11-05T14:35:59.364Z,1008.67
2022-11-05T14:39:04.046Z,1008.64
2022-11-05T14:41:59.446Z,1008.65
2022-11-05T14:44:59.446Z,1008.64
2022-11-05T14:47:59.441Z,1008.66
2022-11-05T14:50:59.445Z,1008.66
2022-11-05T14:53:59.443Z,1008.68
2022-11-05T14:56:59.441Z,1008.7
2022-11-05T14:59:59.448Z,1008.69
2022-11-05T15:02:59.445Z,1008.7
2022-11-05T15:05:59.446Z,1008.76
2022-11-05T15:08:59.446Z,1008.79
2022-11-05T15:11:59.438Z,1008.8
2022-11-05T15:14:59.436Z,1008.79
2022-11-05T15:17:59.438Z,1008.74
2022-11-05T15:20:59.434Z,1008.82
2022-11-05T15:23:59.429Z,1008.75
2022-11-05T15:26:59.426Z,1008.69
2022-11-05T15:29:59.504Z,1008.65
2022-11-05T15:32:59.424Z,1008.73
2022-11-05T15:35:59.432Z,1008.76
2022-11-05T15:39:15.472Z,1008.79
2022-11-05T15:41:59.428Z,1008.79
2022-11-05T15:44:59.421Z,1008.81
2022-11-05T15:47:59.415Z,1008.77
2022-11-05T15:50:59.421Z,1008.77
2022-11-05T15:54:28.868Z,1008.81
2022-11-05T15:56:59.425Z,1008.85
2022-11-05T15:59:59.420Z,1008.89
2022-11-05T16:02:59.419Z,1008.89
2022-11-05T16:05:59.421Z,1008.85
2022-11-05T16:08:59.424Z,1008.85
2022-11-05T16:11:59.419Z,1008.87
2022-11-05T16:14:59.421Z,1008.81
2022-11-05T16:17:59.425Z,1008.84
2022-11-05T16:20:59.421Z,1008.8
2022-11-05T16:23:59.455Z,1008.85
2022-11-05T16:27:02.569Z,1008.87
2022-11-05T16:29:59.417Z,1008.85
2022-11-05T16:32:59.414Z,1008.88
2022-11-05T16:35:59.404Z,1008.9
2022-11-05T16:38:59.405Z,1008.92
2022-11-05T16:41:59.409Z,1008.93
2022-11-05T16:44:59.409Z,1008.94
2022-11-05T16:47:59.408Z,1008.96
2022-11-05T16:50:59.399Z,1009.06
2022-11-05T16:53:59.402Z,1009.14
2022-11-05T16:56:59.401Z,1009.19
2022-11-05T16:59:59.402Z,1009.24
2022-11-05T17:02:59.448Z,1009.34
2022-11-05T17:05:59.399Z,1009.44
2022-11-05T17:08:59.397Z,1009.49
2022-11-05T17:11:59.393Z,1009.56
2022-11-05T17:14:59.400Z,1009.62
2022-11-05T17:17:59.391Z,1009.63
2022-11-05T17:20:59.388Z,1009.63
2022-11-05T17:23:59.398Z,1009.68
2022-11-05T17:26:59.400Z,1009.7
2022-11-05T17:29:59.395Z,1009.71
2022-11-05T17:32:59.454Z,1009.68
2022-11-05T17:35:59.406Z,1009.69
2022-11-05T17:38:59.402Z,1009.68
2022-11-05T17:41:59.404Z,1009.64
2022-11-05T17:44:59.401Z,1009.63
2022-11-05T17:47:59.405Z,1009.63
2022-11-05T17:50:59.399Z,1009.69
2022-11-05T17:53:59.401Z,1009.73
2022-11-05T17:56:59.549Z,1009.78
2022-11-05T17:59:59.497Z,1009.77
2022-11-05T18:02:59.497Z,1009.68
2022-11-05T18:05:59.500Z,1009.75
2022-11-05T18:08:59.502Z,1009.74
2022-11-05T18:11:59.502Z,1009.84
2022-11-05T18:14:59.504Z,1009.8
2022-11-05T18:17:59.506Z,1009.8
2022-11-05T18:20:59.500Z,1009.85
2022-11-05T18:23:59.491Z,1009.94
2022-11-05T18:26:59.487Z,1010.01
2022-11-05T18:29:59.486Z,1010.09
2022-11-05T18:32:59.490Z,1010.15
2022-11-05T18:35:59.492Z,1010.17
2022-11-05T18:38:59.497Z,1010.18
2022-11-05T18:41:59.495Z,1010.18
2022-11-05T18:44:59.487Z,1010.21
2022-11-05T18:47:59.495Z,1010.15
2022-11-05T18:51:01.969Z,1010.14
2022-11-05T18:53:59.490Z,1010.17
2022-11-05T18:56:59.490Z,1010.17
2022-11-05T18:59:59.486Z,1010.18
2022-11-05T19:02:59.678Z,1010.16
2022-11-05T19:05:59.551Z,1010.14
2022-11-05T19:08:59.484Z,1010.13
2022-11-05T19:11:59.490Z,1010.19
2022-11-05T19:15:02.527Z,1010.23
2022-11-05T19:17:59.475Z,1010.16
2022-11-05T19:20:59.509Z,1010.14
2022-11-05T19:23:59.482Z,1010.17
2022-11-05T19:26:59.479Z,1010.17
2022-11-05T19:29:59.477Z,1010.12
2022-11-05T19:32:59.486Z,1010.13
2022-11-05T19:35:59.541Z,1010.09
2022-11-05T19:38:59.487Z,1010.06
2022-11-05T19:42:03.578Z,1010.08
2022-11-05T19:45:11.509Z,1010.14
2022-11-05T19:47:59.483Z,1010.09
2022-11-05T19:50:59.531Z,1010.07
2022-11-05T19:53:59.466Z,1010.02
2022-11-05T19:56:59.477Z,1010.06
2022-11-05T19:59:59.463Z,1010.07
2022-11-05T20:02:59.583Z,1010.08
2022-11-05T20:05:59.469Z,1010.1
2022-11-05T20:09:20.371Z,1010.12
2022-11-05T20:11:59.478Z,1010.1
2022-11-05T20:14:59.476Z,1010.08
2022-11-05T20:17:59.481Z,1010.08
2022-11-05T20:20:59.472Z,1010.12
2022-11-05T20:23:59.478Z,1010.16
2022-11-05T20:26:59.470Z,1010.21
2022-11-05T20:29:59.464Z,1010.23
2022-11-05T20:32:59.469Z,1010.22
2022-11-05T20:35:59.479Z,1010.23
2022-11-05T20:38:59.478Z,1010.21
2022-11-05T20:41:59.465Z,1010.22
2022-11-05T20:44:59.466Z,1010.26
2022-11-05T20:47:59.474Z,1010.25
2022-11-05T20:50:59.464Z,1010.25
2022-11-05T20:53:59.463Z,1010.2
2022-11-05T20:56:59.469Z,1010.17
2022-11-05T20:59:59.465Z,1010.18
2022-11-05T21:02:59.504Z,1010.2
2022-11-05T21:05:59.460Z,1010.17
2022-11-05T21:08:59.461Z,1010.18
2022-11-05T21:11:59.547Z,1010.18
2022-11-05T21:14:59.491Z,1010.17
2022-11-05T21:17:59.525Z,1010.2
2022-11-05T21:20:59.465Z,1010.17
2022-11-05T21:23:59.462Z,1010.15
2022-11-05T21:26:59.467Z,1010.14
2022-11-05T21:29:59.459Z,1010.17
2022-11-05T21:32:59.463Z,1010.12
2022-11-05T21:35:59.456Z,1010.17
2022-11-05T21:38:59.448Z,1010.11
2022-11-05T21:41:59.454Z,1010.03
2022-11-05T21:45:00.643Z,1010.06
2022-11-05T21:47:59.455Z,1010.06
2022-11-05T21:50:59.444Z,1010.09
2022-11-05T21:53:59.453Z,1010.09
2022-11-05T21:56:59.454Z,1010.07
2022-11-05T21:59:59.436Z,1010.09
2022-11-05T22:02:59.512Z,1010.09
2022-11-05T22:05:59.447Z,1010.1
2022-11-05T22:08:59.464Z,1010.1
2022-11-05T22:11:59.467Z,1010.11
2022-11-05T22:14:59.477Z,1010.07
2022-11-05T22:17:59.469Z,1010.06
2022-11-05T22:20:59.466Z,1010.14
2022-11-05T22:23:59.462Z,1010.13
2022-11-05T22:26:59.462Z,1010.24
2022-11-05T22:29:59.455Z,1010.29
2022-11-05T22:32:59.463Z,1010.33
2022-11-05T22:35:59.459Z,1010.34
2022-11-05T22:38:59.459Z,1010.28
2022-11-05T22:42:02.021Z,1010.25
2022-11-05T22:44:59.461Z,1010.19
2022-11-05T22:48:02.588Z,1010.15
2022-11-05T22:50:59.457Z,1010.15
2022-11-05T22:53:59.452Z,1010.14
2022-11-05T22:56:59.776Z,1010.17
2022-11-05T22:59:59.719Z,1010.17
2022-11-05T23:02:59.822Z,1010.18
2022-11-05T23:05:59.714Z,1010.2
2022-11-05T23:08:59.716Z,1010.2
2022-11-05T23:11:59.724Z,1010.21
2022-11-05T23:14:59.725Z,1010.2
2022-11-05T23:17:59.718Z,1010.15
2022-11-05T23:20:59.714Z,1010.08
2022-11-05T23:23:59.706Z,1010.05
2022-11-05T23:26:59.719Z,1010.02
2022-11-05T23:29:59.713Z,1010.03
2022-11-05T23:32:59.707Z,1010
2022-11-05T23:35:59.703Z,1009.88
2022-11-05T23:38:59.706Z,1009.87
2022-11-05T23:41:59.705Z,1009.92
2022-11-05T23:44:59.706Z,1009.94
2022-11-05T23:47:59.702Z,1009.92
2022-11-05T23:50:59.707Z,1009.9
2022-11-05T23:53:59.702Z,1009.9
2022-11-05T23:56:59.702Z,1009.9
2022-11-05T23:59:59.705Z,1009.87
